createdAt,value
2023-01-26T00:01:23.339Z,12.82
2023-01-26T00:03:50.900Z,12.95
2023-01-26T00:06:20.240Z,12.95
2023-01-26T00:08:50.827Z,13.57
2023-01-26T00:11:30.345Z,13.68
2023-01-26T00:14:00.285Z,13.45
2023-01-26T00:16:27.966Z,14.57
2023-01-26T00:18:54.926Z,14.30
2023-01-26T00:21:23.584Z,14.00
2023-01-26T00:23:51.791Z,13.55
2023-01-26T00:26:22.480Z,14.35
2023-01-26T00:28:49.789Z,13.45
2023-01-26T00:31:20.332Z,13.43
2023-01-26T00:33:47.213Z,13.18
2023-01-26T00:36:14.333Z,12.85
2023-01-26T00:38:42.207Z,13.73
2023-01-26T00:41:09.319Z,14.73
2023-01-26T00:43:36.198Z,14.27
2023-01-26T00:46:03.463Z,14.50
2023-01-26T00:48:30.262Z,14.82
2023-01-26T00:50:57.069Z,14.60
2023-01-26T00:53:23.902Z,15.48
2023-01-26T00:55:50.757Z,14.95
2023-01-26T00:58:17.513Z,13.88
2023-01-26T01:00:44.386Z,14.02
2023-01-26T01:03:11.204Z,13.27
2023-01-26T01:05:37.986Z,14.02
2023-01-26T01:08:05.043Z,13.52
2023-01-26T01:10:31.779Z,13.98
2023-01-26T01:12:58.534Z,14.68
2023-01-26T01:15:25.460Z,14.02
2023-01-26T01:17:52.734Z,13.98
2023-01-26T01:20:19.875Z,14.88
2023-01-26T01:22:47.085Z,14.18
2023-01-26T01:25:14.388Z,15.23
2023-01-26T01:27:41.330Z,13.65
2023-01-26T01:30:10.044Z,14.98
2023-01-26T01:32:39.528Z,14.50
2023-01-26T01:35:07.256Z,14.90
2023-01-26T01:37:34.521Z,14.88
2023-01-26T01:40:01.268Z,14.60
2023-01-26T01:42:28.120Z,13.27
2023-01-26T01:45:25.784Z,12.77
2023-01-26T01:47:59.576Z,13.02
2023-01-26T01:50:27.276Z,12.85
2023-01-26T01:52:56.365Z,13.70
2023-01-26T01:55:25.443Z,14.13
2023-01-26T01:57:58.845Z,13.75
2023-01-26T02:00:26.504Z,13.80
2023-01-26T02:03:19.396Z,13.88
2023-01-26T02:06:13.962Z,13.70
2023-01-26T02:08:46.429Z,12.85
2023-01-26T02:11:39.564Z,14.05
2023-01-26T02:14:09.819Z,13.73
2023-01-26T02:16:39.747Z,13.45
2023-01-26T02:19:20.122Z,14.43
2023-01-26T02:21:49.883Z,12.52
2023-01-26T02:24:26.935Z,12.93
2023-01-26T02:26:54.748Z,14.02
2023-01-26T02:29:22.446Z,12.40
2023-01-26T02:31:49.802Z,12.60
2023-01-26T02:34:16.710Z,12.52
2023-01-26T02:36:43.497Z,11.48
2023-01-26T02:39:20.595Z,13.27
2023-01-26T02:42:07.625Z,11.40
2023-01-26T02:44:34.439Z,12.02
2023-01-26T02:47:01.193Z,11.30
2023-01-26T02:49:46.381Z,12.10
2023-01-26T02:52:15.202Z,11.70
2023-01-26T02:55:00.315Z,11.25
2023-01-26T02:57:27.219Z,11.40
2023-01-26T02:59:54.024Z,11.45
2023-01-26T03:02:21.140Z,11.60
2023-01-26T03:04:47.920Z,11.57
2023-01-26T03:07:15.505Z,10.93
2023-01-26T03:09:42.533Z,11.48
2023-01-26T03:12:09.404Z,13.20
2023-01-26T03:14:36.183Z,11.02
2023-01-26T03:17:03.031Z,12.07
2023-01-26T03:19:48.180Z,12.40
2023-01-26T03:22:33.773Z,11.07
2023-01-26T03:25:18.927Z,11.20
2023-01-26T03:27:49.944Z,10.73
2023-01-26T03:30:19.182Z,11.98
2023-01-26T03:32:46.052Z,12.13
2023-01-26T03:35:15.920Z,12.48
2023-01-26T03:37:43.901Z,12.30
2023-01-26T03:40:31.994Z,10.82
2023-01-26T03:43:17.393Z,11.73
2023-01-26T03:46:02.596Z,11.82
2023-01-26T03:48:47.735Z,11.18
2023-01-26T03:51:32.771Z,11.80
2023-01-26T03:54:18.257Z,12.77
2023-01-26T03:56:45.009Z,13.23
2023-01-26T03:59:15.106Z,12.45
2023-01-26T04:02:05.575Z,12.27
2023-01-26T04:04:50.740Z,12.18
2023-01-26T04:07:36.544Z,12.30
2023-01-26T04:10:03.376Z,12.80
2023-01-26T04:12:30.151Z,12.80
2023-01-26T04:15:15.549Z,12.82
2023-01-26T04:18:00.721Z,12.70
2023-01-26T04:20:45.961Z,13.15
2023-01-26T04:23:20.185Z,12.70
2023-01-26T04:25:48.566Z,12.48
2023-01-26T04:28:15.662Z,12.95
2023-01-26T04:30:42.501Z,12.32
2023-01-26T04:33:10.506Z,12.63
2023-01-26T04:35:37.335Z,12.52
2023-01-26T04:38:04.073Z,11.95
2023-01-26T04:40:30.867Z,13.02
2023-01-26T04:42:57.686Z,11.68
2023-01-26T04:45:24.459Z,11.18
2023-01-26T04:47:51.274Z,11.75
2023-01-26T04:50:18.200Z,11.73
2023-01-26T04:52:45.018Z,11.10
2023-01-26T04:55:11.789Z,11.68
2023-01-26T04:57:38.767Z,12.23
2023-01-26T05:00:07.350Z,11.13
2023-01-26T05:02:34.207Z,12.27
2023-01-26T05:05:01.004Z,11.75
2023-01-26T05:07:27.758Z,12.95
2023-01-26T05:09:55.648Z,11.35
2023-01-26T05:12:34.357Z,11.32
2023-01-26T05:15:01.340Z,11.88
2023-01-26T05:17:28.193Z,11.30
2023-01-26T05:19:54.946Z,11.75
2023-01-26T05:22:22.381Z,11.82
2023-01-26T05:24:49.137Z,12.18
2023-01-26T05:27:21.661Z,12.35
2023-01-26T05:29:50.341Z,12.65
2023-01-26T05:32:18.088Z,12.90
2023-01-26T05:34:45.507Z,11.98
2023-01-26T05:37:14.650Z,12.23
2023-01-26T05:39:42.056Z,11.77
2023-01-26T05:42:08.968Z,12.20
2023-01-26T05:44:35.764Z,13.02
2023-01-26T05:47:02.591Z,13.43
2023-01-26T05:49:29.372Z,12.65
2023-01-26T05:51:56.347Z,12.45
2023-01-26T05:54:23.263Z,13.80
2023-01-26T05:56:50.334Z,14.20
2023-01-26T05:59:17.134Z,12.95
2023-01-26T06:01:43.906Z,15.75
2023-01-26T06:04:11.570Z,13.73
2023-01-26T06:06:38.411Z,14.05
2023-01-26T06:09:05.180Z,13.75
2023-01-26T06:11:33.043Z,15.85
2023-01-26T06:14:00.225Z,16.35
2023-01-26T06:16:27.312Z,15.13
2023-01-26T06:18:54.209Z,16.52
2023-01-26T06:21:21.125Z,14.23
2023-01-26T06:23:48.006Z,16.00
2023-01-26T06:26:15.222Z,14.82
2023-01-26T06:28:42.011Z,14.13
2023-01-26T06:31:10.750Z,18.27
2023-01-26T06:33:38.231Z,21.45
2023-01-26T06:36:11.362Z,23.30
2023-01-26T06:38:39.174Z,17.77
2023-01-26T06:41:09.158Z,15.25
2023-01-26T06:43:36.627Z,15.32
2023-01-26T06:46:05.579Z,16.35
2023-01-26T06:48:36.879Z,16.48
2023-01-26T06:51:15.949Z,17.23
2023-01-26T06:53:58.710Z,13.85
2023-01-26T06:56:27.891Z,12.98
2023-01-26T06:58:54.695Z,15.43
2023-01-26T07:01:26.541Z,15.35
2023-01-26T07:03:54.833Z,14.20
2023-01-26T07:06:22.041Z,13.95
2023-01-26T07:08:48.834Z,14.95
2023-01-26T07:11:16.771Z,15.77
2023-01-26T07:13:43.834Z,15.95
2023-01-26T07:16:13.969Z,28.95
2023-01-26T07:18:41.019Z,21.90
2023-01-26T07:21:12.490Z,17.17
2023-01-26T07:23:39.505Z,15.15
2023-01-26T07:26:06.661Z,15.00
2023-01-26T07:28:39.238Z,14.70
2023-01-26T07:31:08.468Z,14.55
2023-01-26T07:33:36.786Z,14.45
2023-01-26T07:36:04.456Z,14.65
2023-01-26T07:38:35.411Z,15.23
2023-01-26T07:41:08.550Z,14.88
2023-01-26T07:43:38.316Z,15.10
2023-01-26T07:46:06.430Z,15.35
2023-01-26T07:48:34.508Z,13.80
2023-01-26T07:51:04.813Z,14.70
2023-01-26T07:53:34.129Z,15.05
2023-01-26T07:56:17.786Z,14.25
2023-01-26T07:58:44.588Z,13.35
2023-01-26T08:01:14.929Z,13.85
2023-01-26T08:03:42.802Z,13.73
2023-01-26T08:06:12.417Z,14.65
2023-01-26T08:08:41.289Z,14.15
2023-01-26T08:11:10.155Z,14.85
2023-01-26T08:13:37.288Z,14.30
2023-01-26T08:16:12.575Z,14.07
2023-01-26T08:18:41.975Z,13.93
2023-01-26T08:21:11.185Z,14.93
2023-01-26T08:23:37.972Z,13.57
2023-01-26T08:26:11.867Z,13.25
2023-01-26T08:28:39.249Z,12.80
2023-01-26T08:31:13.151Z,14.07
2023-01-26T08:33:42.675Z,13.88
2023-01-26T08:36:14.339Z,15.13
2023-01-26T08:38:43.461Z,13.95
2023-01-26T08:41:11.319Z,13.80
2023-01-26T08:43:39.242Z,14.55
2023-01-26T08:46:07.289Z,16.00
2023-01-26T08:48:34.218Z,14.30
2023-01-26T08:51:04.093Z,14.57
2023-01-26T08:53:32.940Z,14.35
2023-01-26T08:56:04.782Z,16.77
2023-01-26T08:58:33.642Z,15.48
2023-01-26T09:01:07.994Z,15.85
2023-01-26T09:03:35.479Z,16.92
2023-01-26T09:06:04.815Z,15.13
2023-01-26T09:08:31.696Z,20.50
2023-01-26T09:10:58.683Z,26.10
2023-01-26T09:13:25.857Z,19.25
2023-01-26T09:15:52.821Z,17.73
2023-01-26T09:18:19.701Z,16.02
2023-01-26T09:20:46.576Z,17.08
2023-01-26T09:23:13.403Z,16.70
2023-01-26T09:25:40.867Z,16.27
2023-01-26T09:28:07.651Z,15.73
2023-01-26T09:30:34.932Z,15.45
2023-01-26T09:33:04.977Z,24.00
2023-01-26T09:35:32.387Z,16.40
2023-01-26T09:37:59.236Z,15.13
2023-01-26T09:40:44.360Z,18.23
2023-01-26T09:43:45.695Z,15.15
2023-01-26T09:46:46.765Z,14.70
2023-01-26T09:49:25.108Z,15.23
2023-01-26T09:52:00.498Z,14.88
2023-01-26T09:54:39.039Z,13.88
2023-01-26T09:58:06.397Z,14.48
2023-01-26T10:00:56.749Z,14.63
2023-01-26T10:03:38.949Z,14.10
2023-01-26T10:06:21.620Z,11.97
2023-01-26T10:08:49.728Z,14.02
2023-01-26T10:11:29.040Z,13.65
2023-01-26T10:14:24.418Z,13.68
2023-01-26T10:16:53.162Z,14.55
2023-01-26T10:19:39.600Z,12.82
2023-01-26T10:22:15.618Z,22.67
2023-01-26T10:24:52.814Z,15.38
2023-01-26T10:27:19.655Z,20.58
2023-01-26T10:29:46.479Z,19.88
2023-01-26T10:32:15.574Z,20.05
2023-01-26T10:34:48.367Z,11.35
2023-01-26T10:37:29.162Z,18.08
2023-01-26T10:40:02.560Z,15.35
2023-01-26T10:42:32.780Z,13.23
2023-01-26T10:45:02.485Z,13.23
2023-01-26T10:47:29.856Z,20.67
2023-01-26T10:50:23.180Z,13.13
2023-01-26T10:53:03.539Z,12.73
2023-01-26T10:55:33.818Z,11.38
2023-01-26T10:58:01.891Z,13.48
2023-01-26T11:00:33.526Z,14.05
2023-01-26T11:03:14.730Z,16.02
2023-01-26T11:05:44.729Z,14.68
2023-01-26T11:08:50.785Z,11.77
2023-01-26T11:11:30.351Z,13.55
2023-01-26T11:14:17.509Z,13.88
2023-01-26T11:17:15.342Z,10.52
2023-01-26T11:20:29.283Z,9.90
2023-01-26T11:23:25.199Z,12.70
2023-01-26T11:26:25.817Z,11.95
2023-01-26T11:29:10.973Z,10.02
2023-01-26T11:32:18.193Z,9.77
2023-01-26T11:35:08.595Z,9.88
2023-01-26T11:37:54.054Z,9.20
2023-01-26T11:40:46.559Z,10.32
2023-01-26T11:43:20.736Z,8.77
2023-01-26T11:46:25.014Z,9.75
2023-01-26T11:52:08.396Z,12.05
2023-01-26T11:57:29.057Z,12.18
2023-01-26T12:00:28.530Z,10.68
2023-01-26T12:03:05.908Z,10.35
2023-01-26T12:05:44.798Z,9.80
2023-01-26T12:08:19.599Z,10.90
2023-01-26T12:11:23.694Z,13.43
2023-01-26T12:14:02.508Z,12.40
2023-01-26T12:16:42.814Z,9.18
2023-01-26T12:19:49.116Z,10.32
2023-01-26T12:22:38.602Z,9.27
2023-01-26T12:25:30.504Z,9.52
2023-01-26T12:28:34.067Z,9.38
2023-01-26T12:31:23.079Z,9.82
2023-01-26T12:33:55.645Z,9.70
2023-01-26T12:36:29.804Z,8.35
2023-01-26T12:39:09.127Z,9.48
2023-01-26T12:42:13.603Z,9.88
2023-01-26T12:45:02.543Z,9.88
2023-01-26T12:48:14.666Z,9.85
2023-01-26T12:50:53.352Z,10.50
2023-01-26T12:53:46.788Z,11.52
2023-01-26T12:58:51.711Z,8.70
2023-01-26T13:01:24.709Z,9.38
2023-01-26T13:04:06.931Z,9.38
2023-01-26T13:06:35.864Z,7.43
2023-01-26T13:09:26.101Z,10.02
2023-01-26T13:11:55.675Z,10.52
2023-01-26T13:14:39.747Z,9.88
2023-01-26T13:17:15.743Z,12.60
2023-01-26T13:19:42.619Z,14.88
2023-01-26T13:22:42.228Z,11.57
2023-01-26T13:25:20.210Z,9.70
2023-01-26T13:28:03.735Z,9.75
2023-01-26T13:30:46.167Z,9.85
2023-01-26T13:33:25.658Z,9.65
2023-01-26T13:35:55.908Z,9.43
2023-01-26T13:38:41.511Z,11.05
2023-01-26T13:41:21.736Z,11.43
2023-01-26T13:43:55.202Z,13.18
2023-01-26T13:46:41.021Z,10.80
2023-01-26T13:49:33.979Z,10.98
2023-01-26T13:52:01.372Z,11.98
2023-01-26T13:54:28.279Z,12.80
2023-01-26T13:57:08.041Z,12.10
2023-01-26T13:59:48.604Z,12.80
2023-01-26T14:02:32.564Z,12.18
2023-01-26T14:05:01.664Z,12.73
2023-01-26T14:07:43.685Z,16.70
2023-01-26T14:10:20.704Z,13.27
2023-01-26T14:12:52.788Z,11.48
2023-01-26T14:15:25.670Z,8.98
2023-01-26T14:18:05.487Z,11.43
2023-01-26T14:20:38.452Z,10.50
2023-01-26T14:23:21.151Z,10.10
2023-01-26T14:25:59.030Z,10.57
2023-01-26T14:28:43.823Z,11.27
2023-01-26T14:31:22.729Z,12.52
2023-01-26T14:33:55.923Z,11.93
2023-01-26T14:36:26.988Z,11.57
2023-01-26T14:38:56.881Z,11.70
2023-01-26T14:41:36.987Z,11.82
2023-01-26T14:44:07.629Z,11.38
2023-01-26T14:47:02.373Z,11.98
2023-01-26T14:49:45.166Z,12.30
2023-01-26T14:52:52.429Z,12.55
2023-01-26T14:55:30.330Z,17.05
2023-01-26T14:57:59.211Z,13.52
2023-01-26T15:00:34.930Z,14.07
2023-01-26T15:03:36.825Z,14.30
2023-01-26T15:06:14.486Z,12.13
2023-01-26T15:08:57.923Z,12.75
2023-01-26T15:11:57.281Z,17.23
2023-01-26T15:14:36.687Z,11.95
2023-01-26T15:17:06.268Z,11.43
2023-01-26T15:19:41.796Z,12.07
2023-01-26T15:22:23.474Z,11.07
2023-01-26T15:25:17.982Z,11.70
2023-01-26T15:28:01.612Z,11.00
2023-01-26T15:30:34.035Z,13.85
2023-01-26T15:33:03.121Z,14.00
2023-01-26T15:35:35.089Z,12.88
2023-01-26T15:38:11.954Z,16.13
2023-01-26T15:40:40.810Z,17.85
2023-01-26T15:43:16.079Z,13.98
2023-01-26T15:45:52.911Z,12.98
2023-01-26T15:48:20.932Z,13.73
2023-01-26T15:50:48.460Z,13.38
2023-01-26T15:53:20.094Z,13.20
2023-01-26T15:55:53.414Z,13.20
2023-01-26T15:58:22.288Z,13.65
2023-01-26T16:00:53.171Z,14.25
2023-01-26T16:03:22.506Z,16.20
2023-01-26T16:05:51.068Z,17.02
2023-01-26T16:08:19.225Z,14.52
2023-01-26T16:10:47.313Z,14.82
2023-01-26T16:13:18.091Z,20.52
2023-01-26T16:15:50.975Z,19.42
2023-01-26T16:20:48.123Z,16.63
2023-01-26T16:23:23.441Z,16.02
2023-01-26T16:25:52.669Z,18.13
2023-01-26T16:28:20.992Z,23.08
2023-01-26T16:30:50.733Z,19.60
2023-01-26T16:33:24.494Z,18.58
2023-01-26T16:35:51.372Z,16.67
2023-01-26T16:38:18.321Z,17.67
2023-01-26T16:40:47.652Z,17.88
2023-01-26T16:43:34.769Z,17.63
2023-01-26T16:46:01.605Z,16.20
2023-01-26T16:48:31.598Z,15.50
2023-01-26T16:50:58.572Z,15.50
2023-01-26T16:53:35.825Z,17.80
2023-01-26T16:56:03.388Z,16.80
2023-01-26T16:58:33.073Z,16.42
2023-01-26T17:01:00.338Z,16.38
2023-01-26T17:03:27.150Z,14.73
2023-01-26T17:05:56.011Z,15.48
2023-01-26T17:08:23.085Z,15.48
2023-01-26T17:11:01.721Z,16.48
2023-01-26T17:13:29.839Z,15.07
2023-01-26T17:15:57.965Z,16.17
2023-01-26T17:18:25.751Z,15.05
2023-01-26T17:20:52.645Z,14.80
2023-01-26T17:23:19.484Z,15.60
2023-01-26T17:25:46.292Z,15.60
2023-01-26T17:28:13.061Z,14.52
2023-01-26T17:30:39.873Z,14.48
2023-01-26T17:33:06.689Z,15.48
2023-01-26T17:35:33.588Z,14.73
2023-01-26T17:38:00.406Z,13.68
2023-01-26T17:40:27.248Z,15.00
2023-01-26T17:42:54.028Z,16.00
2023-01-26T17:45:20.876Z,15.52
2023-01-26T17:47:47.696Z,17.65
2023-01-26T17:50:14.847Z,15.95
2023-01-26T17:52:41.677Z,17.20
2023-01-26T17:55:09.681Z,15.75
2023-01-26T17:57:36.734Z,17.75
2023-01-26T18:00:06.187Z,17.40
2023-01-26T18:02:33.795Z,15.40
2023-01-26T18:05:00.651Z,16.95
2023-01-26T18:07:27.482Z,18.25
2023-01-26T18:09:54.348Z,18.70
2023-01-26T18:12:21.147Z,17.98
2023-01-26T18:14:49.462Z,15.77
2023-01-26T18:17:16.302Z,16.95
2023-01-26T18:19:43.273Z,15.98
2023-01-26T18:22:10.078Z,15.10
2023-01-26T18:24:37.561Z,16.05
2023-01-26T18:27:04.369Z,13.60
2023-01-26T18:29:31.264Z,15.20
2023-01-26T18:31:58.566Z,14.63
2023-01-26T18:34:25.452Z,14.38
2023-01-26T18:36:52.345Z,15.65
2023-01-26T18:39:19.187Z,15.30
2023-01-26T18:41:46.140Z,16.00
2023-01-26T18:44:12.948Z,15.45
2023-01-26T18:46:39.797Z,14.70
2023-01-26T18:49:06.651Z,15.73
2023-01-26T18:51:36.094Z,16.35
2023-01-26T18:54:04.782Z,14.07
2023-01-26T18:56:32.134Z,15.43
2023-01-26T18:58:59.311Z,14.68
2023-01-26T19:01:26.774Z,14.10
2023-01-26T19:03:58.553Z,19.63
2023-01-26T19:06:26.453Z,19.67
2023-01-26T19:09:00.806Z,21.50
2023-01-26T19:11:30.953Z,19.35
2023-01-26T19:13:58.732Z,18.02
2023-01-26T19:16:26.483Z,20.13
2023-01-26T19:18:55.339Z,20.08
2023-01-26T19:21:24.761Z,19.17
2023-01-26T19:23:54.190Z,17.95
2023-01-26T19:26:25.701Z,18.15
2023-01-26T19:28:54.428Z,20.33
2023-01-26T19:31:22.394Z,20.83
2023-01-26T19:34:04.739Z,18.58
2023-01-26T19:36:35.897Z,14.10
2023-01-26T19:39:04.526Z,18.55
2023-01-26T19:41:31.829Z,19.45
2023-01-26T19:43:58.825Z,16.55
2023-01-26T19:46:25.812Z,17.63
2023-01-26T19:48:52.703Z,17.35
2023-01-26T19:51:22.984Z,18.38
2023-01-26T19:53:54.827Z,17.02
2023-01-26T19:56:26.357Z,17.73
2023-01-26T19:58:57.039Z,17.85
2023-01-26T20:01:25.446Z,17.60
2023-01-26T20:03:58.496Z,16.83
2023-01-26T20:06:28.766Z,17.63
2023-01-26T20:08:56.312Z,18.30
2023-01-26T20:11:28.788Z,20.80
2023-01-26T20:14:02.329Z,18.25
2023-01-26T20:16:30.595Z,19.20
2023-01-26T20:18:59.179Z,17.65
2023-01-26T20:21:27.461Z,19.63
2023-01-26T20:23:55.978Z,18.67
2023-01-26T20:26:25.917Z,18.10
2023-01-26T20:28:54.008Z,18.70
2023-01-26T20:31:24.804Z,17.58
2023-01-26T20:33:53.448Z,16.60
2023-01-26T20:36:24.879Z,17.63
2023-01-26T20:38:52.369Z,18.38
2023-01-26T20:41:24.067Z,16.58
2023-01-26T20:44:00.961Z,17.00
2023-01-26T20:46:36.323Z,18.73
2023-01-26T20:49:04.633Z,18.77
2023-01-26T20:51:35.715Z,17.83
2023-01-26T20:54:06.228Z,18.48
2023-01-26T20:56:33.981Z,18.80
2023-01-26T20:59:00.957Z,19.95
2023-01-26T21:01:28.105Z,17.58
2023-01-26T21:03:55.251Z,17.27
2023-01-26T21:06:24.191Z,17.60
2023-01-26T21:08:55.208Z,16.23
2023-01-26T21:11:25.131Z,16.50
2023-01-26T21:13:52.069Z,16.30
2023-01-26T21:16:19.485Z,18.10
2023-01-26T21:18:46.524Z,18.02
2023-01-26T21:21:17.516Z,17.67
2023-01-26T21:23:44.755Z,16.35
2023-01-26T21:26:19.148Z,17.08
2023-01-26T21:28:55.787Z,16.73
2023-01-26T21:31:25.453Z,18.30
2023-01-26T21:33:53.522Z,17.67
2023-01-26T21:36:31.864Z,17.27
2023-01-26T21:39:00.501Z,18.48
2023-01-26T21:41:49.872Z,17.55
2023-01-26T21:44:29.360Z,16.42
2023-01-26T21:47:04.059Z,16.67
2023-01-26T21:49:31.267Z,16.58
2023-01-26T21:52:17.187Z,16.33
2023-01-26T21:54:44.034Z,17.85
2023-01-26T21:57:30.347Z,17.65
2023-01-26T21:59:57.134Z,17.23
2023-01-26T22:02:24.131Z,18.15
2023-01-26T22:04:51.053Z,18.95
2023-01-26T22:07:17.928Z,22.85
2023-01-26T22:09:44.763Z,19.90
2023-01-26T22:12:11.559Z,19.80
2023-01-26T22:14:38.361Z,20.92
2023-01-26T22:17:05.353Z,19.55
2023-01-26T22:19:32.447Z,20.45
2023-01-26T22:21:59.255Z,20.85
2023-01-26T22:24:26.097Z,22.00
2023-01-26T22:26:52.916Z,20.75
2023-01-26T22:29:19.864Z,20.17
2023-01-26T22:31:46.803Z,21.23
2023-01-26T22:34:13.753Z,20.02
2023-01-26T22:36:41.272Z,21.15
2023-01-26T22:39:08.491Z,22.05
2023-01-26T22:41:37.621Z,22.23
2023-01-26T22:44:04.595Z,22.35
2023-01-26T22:46:32.050Z,20.52
2023-01-26T22:48:59.883Z,20.73
2023-01-26T22:51:30.907Z,20.05
2023-01-26T22:53:59.369Z,19.60
2023-01-26T22:56:27.092Z,19.73
2023-01-26T22:58:59.830Z,19.98
2023-01-26T23:01:30.211Z,20.40
2023-01-26T23:03:57.977Z,19.75
2023-01-26T23:06:25.607Z,20.73
2023-01-26T23:08:53.067Z,20.55
2023-01-26T23:11:27.289Z,20.45
2023-01-26T23:13:55.921Z,20.02
2023-01-26T23:16:24.389Z,19.52
2023-01-26T23:18:57.435Z,20.15
2023-01-26T23:21:28.164Z,19.15
2023-01-26T23:23:55.326Z,19.70
2023-01-26T23:26:22.762Z,20.17
2023-01-26T23:28:49.691Z,21.67
2023-01-26T23:31:18.388Z,20.23
2023-01-26T23:33:45.986Z,21.42
2023-01-26T23:36:15.268Z,20.67
2023-01-26T23:38:42.330Z,18.90
2023-01-26T23:41:09.246Z,20.45
2023-01-26T23:43:36.578Z,21.25
2023-01-26T23:46:05.924Z,20.30
2023-01-26T23:48:33.018Z,20.52
2023-01-26T23:51:06.760Z,20.10
2023-01-26T23:53:33.938Z,20.70
2023-01-26T23:56:09.486Z,19.55
2023-01-26T23:58:37.456Z,21.58
